Time;durP1;ratioP1;P1;durP2;ratioP2;P2;SDS_P1;SDS_P2;PMS_P1;PMS_P2;Temp;Humidity;BMP_temperature;BMP_pressure;BME280_temperature;BME280_humidity;BME280_pressure;Samples;Min_cycle;Max_cycle;Signal;HPM_P1;HPM_P2
2023/01/24 05:31:22;;;;;;;21.77;12.60;;;4.00;73.20;;;;;;5439687;23;20139;-75
2023/01/24 05:33:47;;;;;;;31.33;13.02;;;4.00;73.30;;;;;;4923971;29;20059;-76
2023/01/24 05:36:28;;;;;;;;;;;;;;;;;;;;;
2023/01/24 05:38:54;;;;;;;27.88;13.13;;;4.00;73.40;;;;;;4901511;29;20023;-83
2023/01/24 05:41:20;;;;;;;30.02;12.57;;;4.10;73.30;;;;;;4904090;29;20059;-84
2023/01/24 05:43:47;;;;;;;27.77;13.95;;;4.10;73.30;;;;;;4899766;29;20028;-85
2023/01/24 05:46:16;;;;;;;24.08;11.63;;;4.10;73.10;;;;;;4901430;29;20032;-84
2023/01/24 05:48:42;;;;;;;24.73;13.15;;;4.10;73.10;;;;;;4911729;29;20036;-80
2023/01/24 05:51:10;;;;;;;29.85;12.70;;;4.10;73.20;;;;;;4901924;29;20029;-83
2023/01/24 05:53:38;;;;;;;30.45;13.45;;;4.10;73.10;;;;;;4918744;29;20060;-82
2023/01/24 05:56:07;;;;;;;25.92;14.20;;;4.10;73.20;;;;;;4916100;29;20135;-84
2023/01/24 06:01:23;;;;;;;30.58;13.93;;;4.20;73.10;;;;;;4902625;29;20051;-80
2023/01/24 06:03:51;;;;;;;27.90;12.68;;;4.20;72.90;;;;;;4892472;29;20040;-81
2023/01/24 06:06:19;;;;;;;29.45;12.07;;;4.20;72.90;;;;;;4919404;29;20032;-81
2023/01/24 06:08:45;;;;;;;29.63;13.73;;;4.10;73.00;;;;;;4906479;29;20519;-82
2023/01/24 06:11:17;;;;;;;25.10;11.75;;;4.10;73.20;;;;;;4902138;29;20480;-80
2023/01/24 06:13:43;;;;;;;23.83;12.50;;;4.10;73.10;;;;;;4913257;29;20040;-81
2023/01/24 06:16:17;;;;;;;33.25;15.63;;;4.20;73.10;;;;;;4911682;29;20024;-81
2023/01/24 06:18:43;;;;;;;26.02;12.85;;;4.20;72.90;;;;;;4918129;29;20075;-81
2023/01/24 06:24:22;;;;;;;23.40;13.55;;;4.00;73.40;;;;;;4905906;29;20036;-81
2023/01/24 06:26:49;;;;;;;26.48;14.23;;;4.00;73.40;;;;;;4919289;29;20507;-81
2023/01/24 06:29:19;;;;;;;26.80;13.35;;;4.00;73.40;;;;;;4905099;29;20032;-80
2023/01/24 06:32:10;;;;;;;26.85;13.52;;;4.00;73.50;;;;;;4916918;29;20219;-83
2023/01/24 06:34:45;;;;;;;23.08;13.05;;;4.10;73.40;;;;;;4913028;29;20035;-76
2023/01/24 06:37:24;;;;;;;31.90;16.17;;;4.00;73.30;;;;;;4915464;29;20068;-76
2023/01/24 06:39:52;;;;;;;35.60;16.38;;;3.80;73.60;;;;;;4919050;29;20111;-77
2023/01/24 06:42:19;;;;;;;27.38;14.88;;;3.80;73.70;;;;;;4919305;29;20047;-77
2023/01/24 06:44:48;;;;;;;29.63;13.95;;;3.80;73.60;;;;;;4917110;29;20107;-77
2023/01/24 06:47:14;;;;;;;29.33;13.65;;;3.70;74.00;;;;;;4916103;29;20040;-77
2023/01/24 06:49:41;;;;;;;27.60;12.80;;;3.80;74.20;;;;;;4919031;29;20020;-77
2023/01/24 06:52:08;;;;;;;28.05;14.18;;;3.80;74.10;;;;;;4919025;29;20042;-77
2023/01/24 06:54:34;;;;;;;31.58;15.32;;;3.90;74.00;;;;;;4915141;29;20028;-77
2023/01/24 06:57:00;;;;;;;25.85;12.32;;;3.90;73.90;;;;;;4903488;29;20029;-77
2023/01/24 06:59:26;;;;;;;22.50;11.65;;;3.90;73.90;;;;;;4935093;29;20024;-77
2023/01/24 07:01:54;;;;;;;27.63;13.27;;;3.90;73.90;;;;;;4934763;29;20092;-77
2023/01/24 07:04:20;;;;;;;28.38;13.60;;;3.90;73.90;;;;;;4915640;29;20512;-77
2023/01/24 07:06:47;;;;;;;26.38;14.80;;;4.00;73.70;;;;;;4919207;29;20407;-77
2023/01/24 07:09:12;;;;;;;27.63;13.52;;;3.90;73.50;;;;;;4918899;29;20025;-77
2023/01/24 07:11:38;;;;;;;25.83;12.05;;;3.90;73.60;;;;;;4914472;29;20908;-77
2023/01/24 07:14:03;;;;;;;27.60;13.60;;;3.90;73.60;;;;;;4915041;29;20024;-78
2023/01/24 07:16:29;;;;;;;34.58;14.48;;;3.90;73.40;;;;;;4900256;29;20037;-77
2023/01/24 07:18:55;;;;;;;35.10;15.25;;;3.80;73.40;;;;;;4918049;29;20030;-77
2023/01/24 07:21:21;;;;;;;31.95;16.83;;;3.90;73.50;;;;;;4909250;29;20047;-77
2023/01/24 07:23:48;;;;;;;27.98;13.75;;;3.80;73.60;;;;;;4901602;29;20032;-77
2023/01/24 07:26:14;;;;;;;27.33;15.57;;;3.80;73.70;;;;;;4918865;29;20066;-77
2023/01/24 07:28:42;;;;;;;28.48;14.20;;;3.70;74.00;;;;;;4910483;29;20089;-77
2023/01/24 07:31:09;;;;;;;31.77;16.30;;;3.70;74.00;;;;;;4903661;29;20512;-77
2023/01/24 07:33:35;;;;;;;31.05;17.05;;;3.80;73.90;;;;;;4918148;29;20111;-77
2023/01/24 07:36:14;;;;;;;31.35;16.63;;;3.80;73.60;;;;;;4906246;29;20067;-77
2023/01/24 07:38:40;;;;;;;31.52;15.50;;;3.70;74.00;;;;;;4921887;29;20380;-77
2023/01/24 07:41:19;;;;;;;40.15;17.92;;;3.70;74.30;;;;;;4922674;29;20167;-77
2023/01/24 07:43:44;;;;;;;29.15;15.40;;;3.70;74.00;;;;;;4920431;29;20036;-77
2023/01/24 07:46:10;;;;;;;28.42;16.50;;;3.80;74.10;;;;;;4903638;29;20040;-77
2023/01/24 07:48:36;;;;;;;32.05;15.50;;;3.80;74.00;;;;;;4917466;29;20499;-78
2023/01/24 07:51:02;;;;;;;26.38;13.88;;;3.80;74.00;;;;;;4904770;29;20135;-77
2023/01/24 07:53:28;;;;;;;24.10;13.13;;;3.90;73.90;;;;;;4915655;29;20032;-78
2023/01/24 07:55:53;;;;;;;34.28;15.23;;;3.90;73.90;;;;;;4922351;29;20035;-77
2023/01/24 07:58:19;;;;;;;29.70;15.68;;;4.00;73.70;;;;;;4914090;29;20112;-77
2023/01/24 08:00:45;;;;;;;31.85;15.43;;;4.00;73.70;;;;;;4903194;29;20028;-77
2023/01/24 08:03:10;;;;;;;31.70;14.55;;;4.00;73.60;;;;;;4912143;29;20546;-77
2023/01/24 08:05:37;;;;;;;34.90;16.15;;;3.80;73.50;;;;;;4921905;29;20043;-77
2023/01/24 08:08:03;;;;;;;27.13;14.02;;;3.80;73.80;;;;;;4913886;29;20064;-77
2023/01/24 08:10:29;;;;;;;33.22;16.00;;;3.80;74.00;;;;;;4915996;29;20028;-77
2023/01/24 08:12:55;;;;;;;35.05;17.02;;;3.90;73.80;;;;;;4921704;29;20461;-77
2023/01/24 08:15:20;;;;;;;39.00;17.92;;;3.80;73.80;;;;;;4917434;29;20092;-77
2023/01/24 08:17:46;;;;;;;26.48;14.52;;;3.80;73.90;;;;;;4908932;29;20104;-77
2023/01/24 08:20:12;;;;;;;24.00;12.13;;;3.80;74.00;;;;;;4904972;29;20029;-77
2023/01/24 08:22:41;;;;;;;32.40;15.63;;;3.90;74.00;;;;;;4921867;29;20039;-77
2023/01/24 08:25:07;;;;;;;31.45;14.50;;;3.90;73.80;;;;;;4918446;29;20466;-77
2023/01/24 08:27:33;;;;;;;38.67;17.08;;;4.00;73.80;;;;;;4903194;29;20028;-77
2023/01/24 08:29:59;;;;;;;26.35;13.02;;;3.90;73.80;;;;;;4902770;29;20499;-77
2023/01/24 08:32:24;;;;;;;25.50;13.68;;;4.00;74.00;;;;;;4903176;29;20040;-77
2023/01/24 08:34:50;;;;;;;34.30;14.07;;;4.00;73.90;;;;;;4921444;29;20063;-76
2023/01/24 08:37:16;;;;;;;34.20;16.75;;;4.00;74.00;;;;;;4921671;29;20060;-76
2023/01/24 08:39:42;;;;;;;33.28;18.00;;;4.00;74.00;;;;;;4923441;29;20503;-77
2023/01/24 08:42:09;;;;;;;29.88;14.48;;;4.00;74.00;;;;;;4902937;29;20179;-77
2023/01/24 08:44:34;;;;;;;38.10;17.05;;;4.00;74.20;;;;;;4902930;29;20037;-77
2023/01/24 08:47:00;;;;;;;37.28;15.15;;;4.00;74.20;;;;;;4902528;29;20028;-77
2023/01/24 08:49:25;;;;;;;33.63;17.85;;;4.00;74.20;;;;;;4903037;29;20041;-77
2023/01/24 08:51:58;;;;;;;33.50;16.77;;;4.10;74.10;;;;;;4902678;29;20029;-77
2023/01/24 08:54:28;;;;;;;37.30;16.52;;;4.10;74.20;;;;;;4910117;29;20016;-77
2023/01/24 08:56:54;;;;;;;44.30;18.75;;;4.20;74.20;;;;;;4902744;29;20369;-77
2023/01/24 08:59:20;;;;;;;36.72;14.90;;;4.20;74.10;;;;;;4902645;29;20036;-76
2023/01/24 09:01:46;;;;;;;39.90;16.67;;;4.20;74.00;;;;;;4902476;29;20028;-77
2023/01/24 09:04:12;;;;;;;29.88;16.35;;;4.20;74.20;;;;;;4907913;29;20039;-77
2023/01/24 09:06:38;;;;;;;34.13;15.68;;;4.20;74.30;;;;;;4919592;29;20123;-77
2023/01/24 09:09:04;;;;;;;33.70;14.38;;;4.30;74.10;;;;;;4921295;29;20028;-77
2023/01/24 09:11:30;;;;;;;37.15;15.48;;;4.20;74.00;;;;;;4910096;29;20480;-77
2023/01/24 09:13:56;;;;;;;41.80;20.77;;;4.20;74.10;;;;;;4902028;29;20914;-77
2023/01/24 09:16:23;;;;;;;36.67;18.25;;;4.30;74.10;;;;;;4899623;29;20048;-77
2023/01/24 09:18:51;;;;;;;36.53;16.83;;;4.30;74.00;;;;;;4902304;29;20048;-77
2023/01/24 09:21:17;;;;;;;49.15;19.23;;;4.30;73.90;;;;;;4902162;29;20400;-77
2023/01/24 09:23:43;;;;;;;47.30;18.17;;;4.30;73.80;;;;;;4902218;29;20029;-77
2023/01/24 09:26:09;;;;;;;35.40;16.67;;;4.40;74.00;;;;;;4901732;29;20032;-77
2023/01/24 09:28:36;;;;;;;45.67;20.42;;;4.40;74.10;;;;;;4902060;29;20500;-76
2023/01/24 09:31:02;;;;;;;38.38;17.42;;;4.40;73.80;;;;;;4901492;29;20504;-76
2023/01/24 09:33:29;;;;;;;27.42;15.40;;;4.50;74.00;;;;;;4910683;29;20028;-77
2023/01/24 09:35:57;;;;;;;40.42;18.83;;;4.40;73.60;;;;;;4920663;29;20031;-77
2023/01/24 09:38:28;;;;;;;35.17;16.02;;;4.40;73.70;;;;;;4920874;29;20028;-77
2023/01/24 09:40:55;;;;;;;;;;;4.40;73.70;;;;;;4909808;29;20769;-77
2023/01/24 09:43:24;;;;;;;43.28;17.85;;;4.50;73.60;;;;;;4901796;29;19907;-77
2023/01/24 09:45:55;;;;;;;35.63;18.67;;;4.50;73.50;;;;;;4901309;29;20040;-77
2023/01/24 09:48:22;;;;;;;40.15;18.38;;;4.50;73.60;;;;;;4901730;29;20033;-77
2023/01/24 09:50:54;;;;;;;44.78;19.40;;;4.60;73.40;;;;;;4901458;29;20056;-77
2023/01/24 09:53:35;;;;;;;45.90;18.20;;;4.60;73.30;;;;;;4900648;29;20403;-77
2023/01/24 09:56:02;;;;;;;45.17;20.83;;;4.60;73.20;;;;;;4901317;29;20027;-77
2023/01/24 09:58:35;;;;;;;49.95;19.92;;;4.50;73.20;;;;;;4901275;29;20035;-77
2023/01/24 10:01:04;;;;;;;46.00;18.95;;;4.60;73.30;;;;;;4901319;29;20035;-78
2023/01/24 10:03:31;;;;;;;44.55;19.38;;;4.60;73.50;;;;;;4907716;29;20037;-77
2023/01/24 10:06:12;;;;;;;44.28;18.13;;;4.70;73.30;;;;;;4901261;29;20036;-77
2023/01/24 10:09:20;;;;;;;37.58;18.50;;;4.80;73.10;;;;;;4901210;29;20039;-78
2023/01/24 10:12:16;;;;;;;46.42;17.33;;;4.70;72.50;;;;;;4911151;29;20072;-78
2023/01/24 10:14:46;;;;;;;42.80;17.15;;;4.70;72.50;;;;;;4906739;29;20089;-77
2023/01/24 10:17:46;;;;;;;34.85;16.92;;;4.50;72.90;;;;;;4901053;29;20396;-78
2023/01/24 10:20:17;;;;;;;33.72;15.88;;;4.60;73.10;;;;;;4901128;29;20044;-77
2023/01/24 10:23:04;;;;;;;41.20;16.92;;;4.70;72.70;;;;;;4900835;29;20444;-78
2023/01/24 10:26:01;;;;;;;40.88;18.50;;;4.70;72.90;;;;;;4900976;29;20024;-78
2023/01/24 10:28:26;;;;;;;41.47;15.93;;;4.70;72.80;;;;;;4901214;29;20037;-78
2023/01/24 10:31:05;;;;;;;37.72;16.75;;;4.80;72.60;;;;;;4892988;29;20055;-78
2023/01/24 10:33:59;;;;;;;39.13;16.98;;;4.90;72.40;;;;;;4922071;29;20051;-78
2023/01/24 10:36:51;;;;;;;45.25;16.85;;;5.00;72.20;;;;;;4898206;29;20132;-78
2023/01/24 10:39:17;;;;;;;39.30;16.88;;;5.00;72.10;;;;;;4910013;29;20020;-78
2023/01/24 10:41:42;;;;;;;39.65;18.23;;;5.00;72.10;;;;;;4901845;29;20029;-78
2023/01/24 10:44:15;;;;;;;46.47;20.02;;;5.10;72.00;;;;;;4900454;29;20028;-78
2023/01/24 10:46:55;;;;;;;41.50;18.52;;;5.10;71.80;;;;;;4900605;29;20024;-78
2023/01/24 10:49:28;;;;;;;49.45;19.50;;;5.00;71.20;;;;;;4900788;29;20029;-78
2023/01/24 10:52:13;;;;;;;42.20;18.98;;;5.00;71.40;;;;;;4900343;29;20062;-78
2023/01/24 10:54:44;;;;;;;38.45;18.40;;;5.00;71.60;;;;;;4899061;29;20119;-78
2023/01/24 10:57:34;;;;;;;36.88;18.40;;;5.00;71.90;;;;;;4900573;29;20029;-78
2023/01/24 11:00:33;;;;;;;37.05;16.67;;;5.20;71.90;;;;;;4895413;29;20411;-78
2023/01/24 11:03:16;;;;;;;39.60;17.05;;;5.30;71.80;;;;;;4904833;29;20103;-78
2023/01/24 11:05:49;;;;;;;34.33;15.32;;;5.30;71.10;;;;;;4903880;29;20044;-78
2023/01/24 11:08:21;;;;;;;39.85;17.52;;;5.40;71.00;;;;;;4900382;29;20032;-78
2023/01/24 11:10:51;;;;;;;40.83;17.60;;;5.30;71.00;;;;;;4905819;29;20080;-78
2023/01/24 11:13:38;;;;;;;50.85;17.30;;;5.30;70.80;;;;;;4919586;29;20029;-78
2023/01/24 11:16:42;;;;;;;38.60;18.20;;;5.30;70.70;;;;;;4901502;29;20036;-78
2023/01/24 11:19:27;;;;;;;38.58;17.30;;;5.30;70.80;;;;;;4894554;29;20044;-78
2023/01/24 11:21:57;;;;;;;42.40;17.58;;;5.30;70.70;;;;;;4900292;29;20025;-78
2023/01/24 11:24:23;;;;;;;33.35;16.40;;;5.40;70.70;;;;;;4900264;29;20037;-78
2023/01/24 11:27:15;;;;;;;42.13;18.45;;;5.40;70.40;;;;;;4900344;29;20027;-78
2023/01/24 11:29:40;;;;;;;39.30;17.63;;;5.40;70.50;;;;;;4918798;29;20100;-78
2023/01/24 11:32:35;;;;;;;42.85;17.83;;;5.40;70.60;;;;;;4908119;29;20048;-77
2023/01/24 11:35:17;;;;;;;46.03;20.70;;;5.50;70.50;;;;;;4900353;29;20488;-77
2023/01/24 11:38:01;;;;;;;34.60;17.67;;;5.60;70.60;;;;;;4900020;29;20021;-77
2023/01/24 11:40:53;;;;;;;35.38;18.67;;;5.60;70.30;;;;;;4900132;29;20055;-77
2023/01/24 11:43:52;;;;;;;38.97;16.90;;;5.70;70.20;;;;;;4898932;29;20052;-77
2023/01/24 11:46:37;;;;;;;40.10;18.98;;;5.70;70.10;;;;;;4900064;29;20484;-77
2023/01/24 11:49:37;;;;;;;38.55;16.55;;;5.70;69.60;;;;;;4899950;29;20097;-77
2023/01/24 11:52:20;;;;;;;38.97;18.37;;;5.60;70.00;;;;;;4899945;29;20056;-77
2023/01/24 11:55:22;;;;;;;38.90;19.15;;;5.60;70.40;;;;;;4910912;29;20272;-77
2023/01/24 11:58:29;;;;;;;42.55;18.33;;;5.60;70.50;;;;;;4912902;29;20032;-77
2023/01/24 12:01:21;;;;;;;38.65;17.85;;;5.60;70.10;;;;;;4899917;29;20040;-77
2023/01/24 12:04:05;;;;;;;41.78;17.98;;;5.70;69.80;;;;;;4911239;29;20032;-77
2023/01/24 12:06:56;;;;;;;44.40;20.65;;;5.80;69.90;;;;;;4910579;29;20032;-77
2023/01/24 12:09:29;;;;;;;46.58;18.27;;;5.90;69.50;;;;;;4899963;29;20035;-78
2023/01/24 12:12:04;;;;;;;40.88;18.88;;;5.90;69.40;;;;;;4914173;29;20116;-78
2023/01/24 12:14:47;;;;;;;36.80;18.30;;;6.00;69.20;;;;;;4910637;29;20119;-78
2023/01/24 12:17:22;;;;;;;41.67;18.40;;;6.10;69.20;;;;;;4903219;29;20032;-78
2023/01/24 12:19:48;;;;;;;46.28;18.58;;;6.10;68.80;;;;;;4903345;29;20039;-78
2023/01/24 12:22:21;;;;;;;37.17;15.52;;;6.00;68.90;;;;;;4903474;29;20111;-78
2023/01/24 12:25:15;;;;;;;44.03;18.02;;;6.10;68.70;;;;;;4902925;29;20044;-78
2023/01/24 12:27:42;;;;;;;34.42;15.80;;;6.00;68.60;;;;;;4911968;29;20028;-78
2023/01/24 12:30:29;;;;;;;40.13;17.88;;;6.10;68.40;;;;;;4921867;29;20098;-78
2023/01/24 12:33:11;;;;;;;46.28;19.17;;;6.20;68.70;;;;;;4913157;29;20035;-77
2023/01/24 12:35:43;;;;;;;36.97;17.08;;;6.10;68.40;;;;;;4921843;29;20024;-77
2023/01/24 12:38:39;;;;;;;46.63;20.05;;;6.10;68.70;;;;;;4919933;29;20032;-78
2023/01/24 12:41:36;;;;;;;42.17;19.85;;;6.10;69.00;;;;;;4921842;29;20116;-77
2023/01/24 12:44:33;;;;;;;44.50;18.50;;;6.10;69.10;;;;;;4921576;29;20043;-77
2023/01/24 12:47:19;;;;;;;36.30;17.45;;;6.10;69.10;;;;;;4904289;29;20531;-77
2023/01/24 12:50:20;;;;;;;42.53;18.65;;;6.00;69.20;;;;;;4918525;29;20079;-78
2023/01/24 12:53:11;;;;;;;46.40;18.45;;;6.00;69.30;;;;;;4921453;29;20032;-77
2023/01/24 12:55:41;;;;;;;37.80;16.70;;;6.00;69.40;;;;;;4920659;29;20083;-77
2023/01/24 12:58:18;;;;;;;41.03;18.40;;;6.00;69.10;;;;;;4909769;29;20028;-77
2023/01/24 13:01:16;;;;;;;35.75;16.58;;;6.10;69.40;;;;;;4915375;29;20091;-77
2023/01/24 13:03:59;;;;;;;39.97;17.73;;;6.10;69.00;;;;;;4921307;29;20119;-77
2023/01/24 13:07:03;;;;;;;36.17;16.40;;;6.10;68.80;;;;;;4907034;29;20439;-77
2023/01/24 13:09:40;;;;;;;35.97;16.00;;;6.00;69.20;;;;;;4826077;29;20049;-77
2023/01/24 13:12:15;;;;;;;35.90;16.08;;;6.10;69.00;;;;;;4901845;29;20566;-78
2023/01/24 13:14:56;;;;;;;32.85;13.93;;;6.10;68.80;;;;;;4902240;29;20379;-77
2023/01/24 13:17:35;;;;;;;35.85;15.38;;;6.00;67.60;;;;;;4902290;29;20111;-77
2023/01/24 13:20:32;;;;;;;39.08;16.42;;;6.10;68.90;;;;;;4902181;29;20044;-77
2023/01/24 13:23:03;;;;;;;45.17;16.67;;;6.20;68.60;;;;;;4902068;29;20025;-79
2023/01/24 13:25:48;;;;;;;30.88;14.88;;;6.20;68.50;;;;;;4902117;29;20047;-78
2023/01/24 13:28:41;;;;;;;32.97;16.38;;;6.20;68.20;;;;;;4900222;29;20087;-78
2023/01/24 13:31:25;;;;;;;44.50;18.55;;;6.20;68.60;;;;;;4901842;29;20056;-78
2023/01/24 13:34:05;;;;;;;37.13;15.95;;;6.30;68.00;;;;;;4913465;29;20399;-78
2023/01/24 13:36:36;;;;;;;34.88;16.05;;;6.20;68.10;;;;;;4920780;29;20092;-78
2023/01/24 13:39:03;;;;;;;36.92;17.83;;;6.10;67.90;;;;;;4920747;29;20032;-78
2023/01/24 13:41:29;;;;;;;41.05;17.85;;;6.20;68.30;;;;;;4903087;29;20036;-78
2023/01/24 13:43:57;;;;;;;37.33;19.52;;;6.10;68.20;;;;;;4901921;29;20064;-78
2023/01/24 13:46:41;;;;;;;29.70;14.70;;;6.20;68.10;;;;;;4901610;29;20044;-78
2023/01/24 13:49:28;;;;;;;37.38;16.90;;;6.20;68.20;;;;;;4901490;29;20035;-78
2023/01/24 13:51:58;;;;;;;35.78;16.67;;;6.30;68.00;;;;;;4901644;29;20029;-78
2023/01/24 13:54:43;;;;;;;42.67;16.83;;;6.30;67.40;;;;;;4909241;29;20043;-78
2023/01/24 13:57:14;;;;;;;40.92;18.88;;;6.20;67.80;;;;;;4920281;29;20024;-78
2023/01/24 13:59:42;;;;;;;37.90;17.13;;;6.20;67.80;;;;;;4903682;29;20081;-78
2023/01/24 14:02:29;;;;;;;36.50;16.10;;;6.20;67.80;;;;;;4901367;29;20040;-78
2023/01/24 14:04:56;;;;;;;35.88;17.00;;;6.20;67.80;;;;;;4901318;29;20055;-78
2023/01/24 14:07:38;;;;;;;33.53;15.63;;;6.00;67.90;;;;;;4901134;29;20032;-78
2023/01/24 14:10:06;;;;;;;35.47;16.80;;;6.20;68.20;;;;;;4901306;29;20028;-78
2023/01/24 14:12:37;;;;;;;40.47;18.00;;;6.20;68.00;;;;;;4901221;29;20063;-78
2023/01/24 14:15:06;;;;;;;43.45;20.13;;;6.30;68.10;;;;;;4900943;29;20092;-78
2023/01/24 14:17:48;;;;;;;45.08;20.10;;;6.30;67.70;;;;;;4901176;29;20029;-78
2023/01/24 14:20:38;;;;;;;43.45;18.27;;;6.30;67.70;;;;;;4920002;29;20512;-78
2023/01/24 14:23:20;;;;;;;41.95;18.13;;;6.20;67.70;;;;;;4901066;29;20533;-78
2023/01/24 14:25:52;;;;;;;51.95;19.23;;;6.20;68.10;;;;;;4900745;29;20056;-78
2023/01/24 14:28:32;;;;;;;40.00;17.65;;;6.10;68.00;;;;;;4907342;29;20047;-78
2023/01/24 14:31:23;;;;;;;33.70;17.08;;;6.20;68.10;;;;;;4898978;29;20053;-77
2023/01/24 14:34:15;;;;;;;;;;;5.90;68.60;;;;;;4912758;29;20377;-77
2023/01/24 14:36:42;;;;;;;41.28;20.20;;;6.00;68.60;;;;;;4915102;29;19975;-78
2023/01/24 14:39:22;;;;;;;32.80;15.93;;;6.10;68.50;;;;;;4900176;29;20392;-77
2023/01/24 14:42:01;;;;;;;;;;;6.20;68.00;;;;;;4901227;29;20021;-78
2023/01/24 14:44:28;;;;;;;36.83;16.73;;;6.20;67.90;;;;;;4900350;29;19911;-78
2023/01/24 14:46:59;;;;;;;34.33;15.85;;;6.20;68.10;;;;;;4900677;29;20040;-78
2023/01/24 14:49:36;;;;;;;33.20;15.60;;;6.10;68.20;;;;;;4908747;29;20032;-78
2023/01/24 14:52:32;;;;;;;29.42;15.32;;;5.90;68.70;;;;;;4919516;29;20028;-78
2023/01/24 14:55:00;;;;;;;34.05;18.13;;;5.90;68.50;;;;;;4919231;29;20040;-78
2023/01/24 14:57:31;;;;;;;40.40;19.63;;;5.80;68.50;;;;;;4912935;29;20033;-78
2023/01/24 15:00:06;;;;;;;33.47;14.88;;;5.80;69.10;;;;;;4900543;29;20032;-78
2023/01/24 15:02:33;;;;;;;36.60;16.40;;;5.90;69.20;;;;;;4902010;29;20028;-78
2023/01/24 15:04:59;;;;;;;41.60;20.30;;;5.90;68.20;;;;;;4910248;29;20837;-78
2023/01/24 15:07:25;;;;;;;36.90;16.17;;;5.80;69.00;;;;;;4921040;29;20032;-78
2023/01/24 15:09:51;;;;;;;39.20;17.80;;;5.90;69.00;;;;;;4919336;29;20028;-78
2023/01/24 15:12:23;;;;;;;44.10;18.55;;;5.70;68.80;;;;;;4901712;29;20089;-78
2023/01/24 15:14:51;;;;;;;39.58;17.38;;;5.70;69.30;;;;;;4900291;29;20053;-78
2023/01/24 15:17:21;;;;;;;42.28;16.75;;;5.60;68.80;;;;;;4911417;29;20061;-79
2023/01/24 15:19:52;;;;;;;42.15;17.05;;;5.60;69.20;;;;;;4913389;29;20035;-77
2023/01/24 15:22:21;;;;;;;;;;;5.50;69.80;;;;;;4917516;29;20021;-78
2023/01/24 15:24:53;;;;;;;38.03;17.27;;;5.60;70.50;;;;;;4900652;29;19911;-77
2023/01/24 15:27:32;;;;;;;39.72;17.88;;;5.70;70.00;;;;;;4914546;29;20032;-80
2023/01/24 15:30:16;;;;;;;35.70;16.43;;;5.80;69.80;;;;;;4925243;29;20028;-76
2023/01/24 15:32:46;;;;;;;40.63;18.75;;;5.80;69.90;;;;;;4934302;29;20303;-77
2023/01/24 15:35:38;;;;;;;42.55;19.00;;;5.90;69.50;;;;;;4909444;29;20046;-76
2023/01/24 15:38:06;;;;;;;38.78;17.45;;;5.80;69.50;;;;;;4900199;29;20480;-77
2023/01/24 15:40:45;;;;;;;36.85;18.35;;;5.80;69.50;;;;;;4903304;29;20635;-79
2023/01/24 15:43:45;;;;;;;34.85;15.52;;;5.90;69.50;;;;;;4911040;29;20033;-77
2023/01/24 15:49:37;;;;;;;32.33;16.10;;;5.80;69.50;;;;;;4918287;29;20046;-77
2023/01/24 15:52:15;;;;;;;37.15;16.52;;;5.80;69.40;;;;;;4912800;29;20036;-77
2023/01/24 15:54:44;;;;;;;31.70;15.40;;;5.80;69.70;;;;;;4919536;29;20032;-76
2023/01/24 15:57:24;;;;;;;34.72;14.95;;;5.80;69.80;;;;;;4922228;29;20083;-78
2023/01/24 15:59:54;;;;;;;;;;;5.70;70.00;;;;;;4920900;29;20032;-78
2023/01/24 16:02:20;;;;;;;37.50;16.25;;;5.70;69.70;;;;;;4908740;29;19915;-78
2023/01/24 16:04:47;;;;;;;39.63;17.55;;;5.70;70.20;;;;;;4921849;29;20040;-78
2023/01/24 16:07:14;;;;;;;40.60;16.75;;;5.70;70.10;;;;;;4921941;29;20035;-78
2023/01/24 16:09:40;;;;;;;38.42;17.63;;;5.70;70.00;;;;;;4916780;29;20032;-78
2023/01/24 16:12:08;;;;;;;34.80;17.23;;;5.70;70.10;;;;;;4929110;29;20024;-78
2023/01/24 16:14:35;;;;;;;38.30;17.73;;;5.60;70.10;;;;;;4928663;29;20399;-78
2023/01/24 16:17:03;;;;;;;44.58;17.45;;;5.60;70.10;;;;;;4916195;29;20037;-78
2023/01/24 16:19:29;;;;;;;41.38;15.60;;;5.50;70.20;;;;;;4914245;29;20032;-78
2023/01/24 16:21:54;;;;;;;31.00;15.00;;;5.40;70.90;;;;;;4921982;29;20032;-78
2023/01/24 16:24:20;;;;;;;35.20;15.20;;;5.40;71.10;;;;;;4921502;29;20028;-79
2023/01/24 16:26:52;;;;;;;33.42;13.85;;;5.30;70.80;;;;;;4902847;29;20025;-78
2023/01/24 16:29:23;;;;;;;29.80;13.85;;;5.40;71.20;;;;;;4912059;29;20055;-78
2023/01/24 16:31:48;;;;;;;41.53;17.27;;;5.50;71.00;;;;;;4921598;29;20127;-78
2023/01/24 16:34:14;;;;;;;28.98;14.88;;;5.50;71.10;;;;;;4919726;29;20096;-78
2023/01/24 16:36:40;;;;;;;28.85;15.18;;;5.50;71.10;;;;;;4921036;29;20104;-78
2023/01/24 16:39:06;;;;;;;40.00;17.08;;;5.50;70.60;;;;;;4921557;29;20483;-78
2023/01/24 16:41:33;;;;;;;26.70;14.45;;;5.50;70.40;;;;;;4917339;29;20024;-86
2023/01/24 16:43:59;;;;;;;34.42;17.33;;;5.40;70.80;;;;;;4908498;29;20032;-81
2023/01/24 16:46:24;;;;;;;35.60;16.23;;;5.40;71.10;;;;;;4918103;29;20115;-78
2023/01/24 16:48:50;;;;;;;33.90;16.08;;;5.40;71.10;;;;;;4907623;29;20028;-76
2023/01/24 16:51:18;;;;;;;32.75;15.98;;;5.40;71.10;;;;;;4914705;29;20088;-80
2023/01/24 16:53:47;;;;;;;27.70;12.68;;;5.40;71.10;;;;;;4911923;29;20028;-80
2023/01/24 16:56:12;;;;;;;40.80;14.98;;;5.40;71.20;;;;;;4903124;29;20032;-81
2023/01/24 16:58:38;;;;;;;36.83;16.50;;;5.40;70.90;;;;;;4905125;29;20043;-76
2023/01/24 17:01:10;;;;;;;28.48;14.20;;;5.30;71.10;;;;;;4920780;29;20083;-81
2023/01/24 17:03:36;;;;;;;29.98;14.40;;;5.30;71.10;;;;;;4907540;29;20032;-80
2023/01/24 17:06:09;;;;;;;32.95;14.48;;;5.30;71.00;;;;;;4902040;29;20794;-79
2023/01/24 17:08:37;;;;;;;36.75;13.75;;;5.30;71.20;;;;;;4901782;29;20508;-77
2023/01/24 17:11:08;;;;;;;36.42;15.55;;;5.30;71.20;;;;;;4907968;29;20028;-75
2023/01/24 17:13:34;;;;;;;33.90;14.80;;;5.30;71.20;;;;;;4918189;29;20057;-75
2023/01/24 17:16:07;;;;;;;39.42;18.05;;;5.30;71.30;;;;;;4903570;29;20028;-76
2023/01/24 17:18:34;;;;;;;34.42;16.15;;;5.20;71.00;;;;;;4902019;29;20407;-76
2023/01/24 17:21:05;;;;;;;41.58;18.13;;;5.20;71.20;;;;;;4920576;29;20067;-76
2023/01/24 17:23:33;;;;;;;35.47;15.73;;;5.10;71.50;;;;;;4902847;29;20032;-76
2023/01/24 17:26:01;;;;;;;47.63;19.42;;;5.10;71.60;;;;;;4920570;29;20036;-77
2023/01/24 17:28:27;;;;;;;33.17;16.25;;;5.00;72.10;;;;;;4907979;29;20444;-76
2023/01/24 17:30:53;;;;;;;33.05;14.57;;;5.00;72.20;;;;;;4919680;29;20122;-76
2023/01/24 17:33:21;;;;;;;32.72;16.27;;;5.00;72.10;;;;;;4917012;29;20028;-76
2023/01/24 17:35:46;;;;;;;35.92;15.32;;;5.10;72.40;;;;;;4902495;29;20040;-76
2023/01/24 17:38:12;;;;;;;40.58;15.88;;;5.20;72.20;;;;;;4911307;29;20027;-76
2023/01/24 17:40:38;;;;;;;39.67;15.68;;;5.20;71.90;;;;;;4917583;29;20026;-76
2023/01/24 17:43:04;;;;;;;35.40;16.23;;;5.10;71.80;;;;;;4902072;29;20108;-76
2023/01/24 17:45:30;;;;;;;31.15;15.30;;;5.20;71.90;;;;;;4911743;29;20054;-77
2023/01/24 17:47:56;;;;;;;44.58;16.63;;;5.20;71.90;;;;;;4902455;29;20041;-77
2023/01/24 17:50:31;;;;;;;30.23;15.43;;;5.20;71.90;;;;;;4917730;29;20044;-76
2023/01/24 17:52:56;;;;;;;31.55;13.95;;;5.20;71.90;;;;;;4920010;29;20035;-76
2023/01/24 17:55:22;;;;;;;35.60;14.95;;;5.20;72.00;;;;;;4916950;29;20032;-76
2023/01/24 17:57:48;;;;;;;20.17;10.73;;;5.20;71.90;;;;;;4919566;29;20063;-76
2023/01/24 18:00:13;;;;;;;35.85;15.70;;;5.10;71.80;;;;;;4913936;29;20061;-76
2023/01/24 18:02:39;;;;;;;36.97;16.27;;;5.10;72.10;;;;;;4886595;29;20475;-76
2023/01/24 18:05:05;;;;;;;37.72;16.60;;;5.00;72.20;;;;;;4920165;29;20043;-77
2023/01/24 18:07:31;;;;;;;33.00;15.23;;;5.00;72.40;;;;;;4902646;29;20024;-77
2023/01/24 18:09:56;;;;;;;29.95;13.02;;;5.00;72.40;;;;;;4898086;29;20052;-77
2023/01/24 18:12:22;;;;;;;32.67;14.70;;;4.90;72.50;;;;;;4900887;29;20024;-77
2023/01/24 18:14:48;;;;;;;30.45;14.90;;;4.90;72.50;;;;;;4923358;29;20028;-77
2023/01/24 18:17:13;;;;;;;24.25;12.02;;;4.90;72.00;;;;;;4901120;29;20130;-77
2023/01/24 18:19:39;;;;;;;37.40;15.30;;;4.80;72.50;;;;;;4910084;29;20452;-77
2023/01/24 18:22:05;;;;;;;36.75;14.80;;;4.80;72.30;;;;;;4915662;29;20460;-77
2023/01/24 18:24:30;;;;;;;30.85;13.55;;;4.80;72.50;;;;;;4901121;29;20419;-77
2023/01/24 18:26:56;;;;;;;32.25;14.52;;;4.80;72.30;;;;;;4900598;29;20403;-77
2023/01/24 18:29:22;;;;;;;34.20;14.75;;;4.80;72.20;;;;;;4900204;29;20039;-77
2023/01/24 18:31:47;;;;;;;42.35;15.13;;;4.90;72.50;;;;;;4900617;29;20554;-76
2023/01/24 18:34:13;;;;;;;39.05;16.50;;;4.90;72.40;;;;;;4902881;29;20449;-77
2023/01/24 18:36:39;;;;;;;38.83;15.50;;;4.90;72.30;;;;;;4902198;29;20032;-77
2023/01/24 18:39:05;;;;;;;36.05;16.63;;;4.80;72.00;;;;;;4901086;29;20076;-77
2023/01/24 18:41:35;;;;;;;36.88;14.75;;;4.80;72.40;;;;;;4899248;29;20444;-76
2023/01/24 18:44:01;;;;;;;;;;;4.80;72.40;;;;;;4900808;29;20520;-77
2023/01/24 18:46:27;;;;;;;29.00;13.15;;;4.80;72.30;;;;;;4913434;29;19919;-77
2023/01/24 18:48:53;;;;;;;39.60;17.02;;;4.80;72.50;;;;;;4902462;29;20510;-77